Time;durP1;ratioP1;P1;durP2;ratioP2;P2;SDS_P1;SDS_P2;PMS_P1;PMS_P2;Temp;Humidity;BMP_temperature;BMP_pressure;BME280_temperature;BME280_humidity;BME280_pressure;Samples;Min_cycle;Max_cycle;Signal;HPM_P1;HPM_P2
2022/09/22 00:00:03;;;;;;;0.57;0.57;;;;;;;7.56;79.11;93603.22;5076281;28;20090;-35
2022/09/22 00:02:29;;;;;;;0.45;0.45;;;;;;;7.55;78.81;93598.25;5072060;28;20064;-35
2022/09/22 00:04:54;;;;;;;0.43;0.43;;;;;;;7.55;78.84;93601.00;5072318;28;20031;-35
2022/09/22 00:07:20;;;;;;;0.98;0.75;;;;;;;7.60;78.87;93592.66;5081390;28;20557;-35
2022/09/22 00:09:45;;;;;;;0.50;0.50;;;;;;;7.63;77.88;93599.88;5092118;28;20501;-35
2022/09/22 00:12:12;;;;;;;0.60;0.60;;;;;;;7.61;77.08;93598.91;5092335;28;20023;-35
2022/09/22 00:14:38;;;;;;;0.75;0.75;;;;;;;7.31;78.32;93599.16;5091736;28;20546;-35
2022/09/22 00:17:03;;;;;;;0.68;0.68;;;;;;;7.26;78.86;93596.50;5081952;28;20118;-35
2022/09/22 00:19:32;;;;;;;1.27;0.95;;;;;;;7.35;78.72;93596.09;5090968;28;20058;-35
2022/09/22 00:21:58;;;;;;;2.00;1.90;;;;;;;7.32;78.63;93589.66;5091894;28;20039;-35
2022/09/22 00:24:24;;;;;;;0.40;0.40;;;;;;;7.34;77.66;93589.13;5091982;28;20049;-35
2022/09/22 00:26:55;;;;;;;0.75;0.73;;;;;;;7.35;77.57;93590.59;5080838;28;20560;-36
2022/09/22 00:29:21;;;;;;;0.40;0.40;;;;;;;7.34;76.84;93591.88;5077586;28;20035;-35
2022/09/22 00:31:47;;;;;;;1.05;1.05;;;;;;;7.31;76.72;93595.66;5071735;28;20030;-36
2022/09/22 00:34:20;;;;;;;0.20;0.20;;;;;;;7.31;77.23;93603.91;5071429;28;20020;-35
2022/09/22 00:36:47;;;;;;;0.30;0.30;;;;;;;7.23;78.04;93603.78;5077459;28;20043;-36
2022/09/22 00:39:13;;;;;;;0.95;0.95;;;;;;;7.11;79.09;93596.97;5083035;28;20055;-36
2022/09/22 00:41:43;;;;;;;1.02;1.02;;;;;;;7.13;79.24;93593.69;5057994;28;20103;-36
2022/09/22 00:44:43;;;;;;;1.35;1.25;;;;;;;7.31;78.67;93588.19;5073525;28;20020;-36
2022/09/22 00:47:17;;;;;;;0.40;0.40;;;;;;;7.36;78.72;93600.34;5064072;28;20062;-36
2022/09/22 00:49:49;;;;;;;2.35;1.80;;;;;;;7.37;78.32;93590.81;5071047;28;20028;-36
2022/09/22 00:52:29;;;;;;;1.42;1.27;;;;;;;7.32;78.18;93592.38;5071321;28;20443;-36
2022/09/22 00:54:57;;;;;;;3.22;2.25;;;;;;;7.12;78.57;93578.50;5057959;28;20023;-36
2022/09/22 00:57:27;;;;;;;0.70;0.70;;;;;;;7.29;78.17;93587.22;5090411;28;20051;-36
2022/09/22 00:59:53;;;;;;;0.82;0.82;;;;;;;7.37;77.67;93582.56;5091171;28;20059;-37
2022/09/22 01:02:19;;;;;;;1.50;1.40;;;;;;;7.35;78.32;93583.13;5091340;28;20440;-36
2022/09/22 01:04:46;;;;;;;0.32;0.32;;;;;;;7.35;78.27;93588.59;5091103;28;20020;-36
2022/09/22 01:07:12;;;;;;;0.57;0.57;;;;;;;7.33;78.10;93585.66;5071169;28;20051;-36
2022/09/22 01:09:38;;;;;;;0.20;0.20;;;;;;;7.25;78.27;93589.53;5090995;28;20051;-36
2022/09/22 01:12:04;;;;;;;3.00;1.10;;;;;;;7.29;78.14;93587.97;5091195;28;20092;-36
2022/09/22 01:14:53;;;;;;;0.30;0.30;;;;;;;7.13;78.92;93593.69;5072895;28;20023;-36
2022/09/22 01:17:19;;;;;;;0.47;0.47;;;;;;;7.06;79.88;93586.81;5080289;28;20028;-36
2022/09/22 01:20:22;;;;;;;1.65;1.20;;;;;;;7.20;80.32;93577.38;5090824;28;20093;-36
2022/09/22 01:23:26;;;;;;;0.95;0.93;;;;;;;7.31;79.96;93585.44;5090857;28;20028;-36
2022/09/22 01:26:00;;;;;;;0.40;0.40;;;;;;;7.17;78.74;93588.66;5041603;28;20036;-36
2022/09/22 01:28:41;;;;;;;0.60;0.60;;;;;;;7.21;78.67;93580.88;5083464;28;20039;-36
2022/09/22 01:31:10;;;;;;;1.17;1.17;;;;;;;7.30;78.19;93585.94;5052781;28;20415;-35
2022/09/22 01:33:56;;;;;;;0.20;0.20;;;;;;;7.34;78.23;93583.66;5064983;28;20063;-35
2022/09/22 01:36:39;;;;;;;0.20;0.20;;;;;;;7.34;78.61;93591.88;5070499;28;20040;-35
2022/09/22 01:39:21;;;;;;;0.47;0.47;;;;;;;7.29;78.48;93590.72;5070294;28;20058;-35
2022/09/22 01:41:50;;;;;;;0.65;0.65;;;;;;;7.30;78.21;93589.44;5075824;28;20038;-35
2022/09/22 01:44:24;;;;;;;0.30;0.30;;;;;;;7.42;78.01;93581.75;5090494;28;20102;-35
2022/09/22 01:46:54;;;;;;;0.73;0.73;;;;;;;7.44;77.50;93570.97;5085787;28;20028;-35
2022/09/22 01:49:20;;;;;;;0.57;0.57;;;;;;;7.38;77.64;93576.59;5062607;28;20024;-36
2022/09/22 01:51:58;;;;;;;0.63;0.63;;;;;;;7.41;77.19;93574.78;5052390;28;20033;-35
2022/09/22 01:54:39;;;;;;;0.40;0.40;;;;;;;7.38;77.58;93568.34;5052322;28;20028;-35
2022/09/22 01:57:16;;;;;;;0.20;0.20;;;;;;;7.34;78.03;93573.38;5058201;28;20478;-35
2022/09/22 01:59:45;;;;;;;0.73;0.73;;;;;;;7.33;77.86;93565.69;5090636;28;20028;-35
2022/09/22 02:02:27;;;;;;;0.73;0.73;;;;;;;7.41;76.98;93569.28;5072459;28;20062;-34
2022/09/22 02:04:56;;;;;;;0.70;0.70;;;;;;;7.42;76.68;93568.78;5070049;28;20036;-34
2022/09/22 02:07:35;;;;;;;0.43;0.43;;;;;;;7.41;75.94;93567.28;5079824;28;20083;-35
2022/09/22 02:10:05;;;;;;;0.40;0.40;;;;;;;7.24;75.61;93544.84;5072536;28;20031;-36
2022/09/22 02:12:31;;;;;;;0.98;0.98;;;;;;;7.32;75.38;93567.69;5090514;28;20039;-36
2022/09/22 02:14:56;;;;;;;0.40;0.40;;;;;;;7.16;75.66;93559.72;5087407;28;20028;-35
2022/09/22 02:17:22;;;;;;;0.77;0.77;;;;;;;7.15;75.66;93558.22;5061196;28;20028;-35
2022/09/22 02:19:47;;;;;;;0.95;0.95;;;;;;;6.98;75.34;93561.25;5090057;28;20024;-35
2022/09/22 02:22:13;;;;;;;1.08;1.08;;;;;;;6.90;75.13;93563.13;5090404;28;20028;-36
2022/09/22 02:24:40;;;;;;;0.35;0.35;;;;;;;6.62;75.60;93562.78;5067542;28;20488;-36
2022/09/22 02:27:12;;;;;;;1.30;1.20;;;;;;;6.47;76.19;93560.50;5069881;28;20480;-36
2022/09/22 02:29:42;;;;;;;0.25;0.25;;;;;;;6.49;75.63;93560.72;5086616;28;20028;-36
2022/09/22 02:32:10;;;;;;;1.50;1.40;;;;;;;6.46;75.53;93561.00;5072370;28;20028;-36
2022/09/22 02:34:36;;;;;;;0.30;0.30;;;;;;;6.32;75.54;93557.47;5071980;28;20458;-35
2022/09/22 02:37:16;;;;;;;2.05;1.40;;;;;;;6.23;75.59;93565.31;5080371;28;20045;-35
2022/09/22 02:40:00;;;;;;;1.02;1.02;;;;;;;6.14;75.75;93560.94;5070116;28;20024;-36
2022/09/22 02:42:30;;;;;;;0.55;0.55;;;;;;;6.05;76.00;93574.97;5063361;28;20465;-36
2022/09/22 02:45:10;;;;;;;0.43;0.43;;;;;;;6.03;75.95;93572.03;5075988;28;20114;-36
2022/09/22 02:47:56;;;;;;;0.95;0.90;;;;;;;6.02;75.78;93574.00;5093288;28;20036;-36
2022/09/22 02:50:22;;;;;;;2.70;1.58;;;;;;;5.94;74.92;93564.91;5075926;28;20032;-36
2022/09/22 02:52:51;;;;;;;0.20;0.20;;;;;;;5.93;75.47;93563.41;5075855;28;20043;-36
2022/09/22 02:55:17;;;;;;;0.47;0.47;;;;;;;5.91;75.51;93567.94;5093403;28;20036;-36
2022/09/22 02:57:42;;;;;;;0.30;0.30;;;;;;;5.94;75.49;93561.41;5092618;28;20058;-36
2022/09/22 03:00:09;;;;;;;0.57;0.57;;;;;;;5.90;75.42;93566.44;5081327;28;20040;-35
2022/09/22 03:02:34;;;;;;;0.47;0.47;;;;;;;5.98;74.82;93568.09;5077096;28;20459;-35
2022/09/22 03:05:00;;;;;;;0.20;0.20;;;;;;;5.92;74.56;93564.66;5085966;28;20020;-35
2022/09/22 03:07:25;;;;;;;1.75;1.65;;;;;;;5.78;75.26;93559.59;5075248;28;20024;-35
2022/09/22 03:09:51;;;;;;;0.30;0.30;;;;;;;5.76;76.20;93568.31;5075222;28;20028;-35
2022/09/22 03:12:17;;;;;;;1.02;1.02;;;;;;;5.59;77.01;93551.31;5086596;28;20556;-35
2022/09/22 03:14:42;;;;;;;0.85;0.85;;;;;;;5.68;76.90;93572.13;5073927;28;20067;-36
2022/09/22 03:17:08;;;;;;;1.00;0.93;;;;;;;5.73;77.51;93569.34;5093051;28;20112;-36
2022/09/22 03:19:33;;;;;;;0.40;0.40;;;;;;;5.76;76.64;93576.50;5093209;28;20062;-36
2022/09/22 03:21:59;;;;;;;0.52;0.52;;;;;;;5.61;77.28;93578.19;5089088;28;20031;-36
2022/09/22 03:24:24;;;;;;;3.42;2.17;;;;;;;5.73;76.17;93585.03;5073017;28;20025;-36
2022/09/22 03:26:50;;;;;;;0.45;0.45;;;;;;;5.72;75.72;93584.28;5072753;28;20020;-36
2022/09/22 03:29:15;;;;;;;2.72;2.47;;;;;;;5.78;75.61;93576.03;5085847;28;20020;-36
2022/09/22 03:31:41;;;;;;;0.45;0.45;;;;;;;5.75;76.08;93579.78;5091027;28;20028;-36
2022/09/22 03:34:06;;;;;;;0.80;0.80;;;;;;;5.80;76.21;93584.47;5072571;28;20031;-36
2022/09/22 03:36:32;;;;;;;0.35;0.35;;;;;;;5.78;76.64;93576.03;5072780;28;20488;-36
2022/09/22 03:38:58;;;;;;;1.05;0.98;;;;;;;5.67;78.19;93576.13;5054666;28;20024;-36
2022/09/22 03:41:24;;;;;;;1.48;0.73;;;;;;;5.78;78.96;93587.69;5074993;28;20029;-36
2022/09/22 03:43:49;;;;;;;1.23;1.23;;;;;;;5.88;79.16;93574.44;5089681;28;20556;-36
2022/09/22 03:46:15;;;;;;;3.08;2.25;;;;;;;6.08;78.68;93588.41;5092559;28;20028;-36
2022/09/22 03:48:40;;;;;;;0.95;0.95;;;;;;;6.13;78.36;93590.31;5092537;28;20028;-36
2022/09/22 03:51:06;;;;;;;1.45;0.73;;;;;;;6.20;78.31;93597.22;5092685;28;20023;-36
2022/09/22 03:53:31;;;;;;;1.05;0.90;;;;;;;6.15;78.67;93598.03;5073106;28;20039;-36
2022/09/22 03:56:11;;;;;;;4.43;4.13;;;;;;;6.25;78.33;93584.72;5082046;28;20082;-36
2022/09/22 03:58:37;;;;;;;2.95;2.60;;;;;;;6.32;77.98;93601.34;5092418;28;20034;-35
2022/09/22 04:01:03;;;;;;;3.03;2.47;;;;;;;6.29;77.79;93596.13;5092503;28;20093;-35
2022/09/22 04:03:29;;;;;;;3.45;2.17;;;;;;;6.29;78.06;93593.38;5089084;28;20031;-35
2022/09/22 04:05:55;;;;;;;2.88;2.72;;;;;;;6.20;78.46;93599.97;5072267;28;20028;-35
2022/09/22 04:08:21;;;;;;;1.65;1.65;;;;;;;6.13;79.16;93600.53;5071850;28;20385;-35
2022/09/22 04:10:46;;;;;;;0.73;0.73;;;;;;;6.27;78.83;93604.88;5054020;28;20093;-35
2022/09/22 04:13:13;;;;;;;2.67;2.47;;;;;;;6.36;78.27;93606.50;5082789;28;20097;-34
2022/09/22 04:15:39;;;;;;;0.85;0.85;;;;;;;6.30;78.34;93606.59;5083079;28;20020;-34
2022/09/22 04:18:04;;;;;;;2.70;2.50;;;;;;;6.23;78.99;93607.16;5071627;28;20035;-35
2022/09/22 04:20:30;;;;;;;1.35;0.93;;;;;;;6.23;79.27;93600.94;5082606;28;20043;-34
2022/09/22 04:22:55;;;;;;;1.48;1.40;;;;;;;6.32;79.07;93601.34;5092041;28;20027;-34
2022/09/22 04:25:21;;;;;;;0.85;0.85;;;;;;;6.36;79.45;93603.78;5085833;28;20507;-34
2022/09/22 04:27:47;;;;;;;1.17;1.17;;;;;;;6.43;80.15;93595.69;5072854;28;20025;-34
2022/09/22 04:30:12;;;;;;;2.30;0.98;;;;;;;6.51;80.44;93604.81;5091656;28;20055;-34
2022/09/22 04:32:38;;;;;;;0.65;0.65;;;;;;;6.49;79.95;93603.84;5085889;28;20036;-34
2022/09/22 04:35:04;;;;;;;1.00;1.00;;;;;;;6.51;79.63;93604.81;5071615;28;20052;-34
2022/09/22 04:37:30;;;;;;;1.40;1.33;;;;;;;6.47;79.14;93604.38;5071349;28;20029;-34
2022/09/22 04:39:56;;;;;;;3.60;1.85;;;;;;;6.38;78.76;93607.50;5071373;28;20037;-34
2022/09/22 04:42:21;;;;;;;0.22;0.22;;;;;;;6.46;78.73;93608.38;5081142;28;20923;-35
2022/09/22 04:44:47;;;;;;;0.40;0.40;;;;;;;6.46;79.13;93608.38;5091636;28;20088;-35
2022/09/22 04:47:12;;;;;;;0.75;0.75;;;;;;;6.41;78.93;93608.47;5091430;28;20476;-34
2022/09/22 04:49:38;;;;;;;0.22;0.22;;;;;;;6.33;78.82;93604.78;5091366;28;20024;-35
2022/09/22 04:52:03;;;;;;;1.25;1.20;;;;;;;6.47;78.94;93617.34;5091698;28;20513;-36
2022/09/22 04:54:30;;;;;;;0.88;0.88;;;;;;;6.47;78.84;93614.59;5091430;28;20098;-36
2022/09/22 04:56:55;;;;;;;0.95;0.95;;;;;;;6.51;78.28;93595.84;5090035;28;20044;-36
2022/09/22 04:59:20;;;;;;;0.43;0.43;;;;;;;6.67;78.12;93609.34;5091143;28;20420;-36
2022/09/22 05:01:46;;;;;;;1.95;1.90;;;;;;;6.66;78.56;93613.34;5086795;28;20158;-36
2022/09/22 05:04:11;;;;;;;0.30;0.30;;;;;;;6.57;79.19;93610.22;5082000;28;20604;-35
2022/09/22 05:06:37;;;;;;;0.40;0.40;;;;;;;6.60;78.78;93611.94;5090068;28;20120;-36
2022/09/22 05:09:03;;;;;;;0.50;0.50;;;;;;;6.66;79.12;93618.84;5090232;28;20036;-36
2022/09/22 05:11:29;;;;;;;2.92;1.85;;;;;;;6.71;79.31;93623.50;5091217;28;20039;-36
2022/09/22 05:13:56;;;;;;;0.47;0.47;;;;;;;6.67;79.17;93623.06;5090638;28;20106;-36
2022/09/22 05:16:22;;;;;;;1.65;1.55;;;;;;;6.74;78.90;93624.47;5077414;28;20041;-36
2022/09/22 05:18:49;;;;;;;2.67;2.58;;;;;;;6.77;78.45;93624.19;5070711;28;20027;-35
2022/09/22 05:21:16;;;;;;;0.95;0.95;;;;;;;6.86;77.79;93623.78;5070656;28;20025;-36
2022/09/22 05:23:42;;;;;;;0.45;0.45;;;;;;;6.80;77.90;93620.38;5071166;28;20039;-36
2022/09/22 05:26:07;;;;;;;1.10;1.10;;;;;;;6.70;78.83;93624.03;5075583;28;20020;-35
2022/09/22 05:28:33;;;;;;;0.68;0.68;;;;;;;6.57;79.57;93621.94;5085004;28;20028;-35
2022/09/22 05:30:59;;;;;;;0.40;0.40;;;;;;;6.73;79.37;93614.75;5086265;28;20515;-35
2022/09/22 05:33:25;;;;;;;0.30;0.30;;;;;;;6.66;79.63;93607.13;5082983;28;20048;-36
2022/09/22 05:35:50;;;;;;;0.40;0.40;;;;;;;6.88;79.24;93623.28;5090541;28;20111;-35
2022/09/22 05:38:16;;;;;;;0.45;0.45;;;;;;;6.88;79.23;93626.78;5090612;28;20376;-35
2022/09/22 05:40:45;;;;;;;2.67;1.05;;;;;;;6.92;79.22;93623.72;5089153;28;20035;-35
2022/09/22 05:43:11;;;;;;;0.82;0.82;;;;;;;6.93;79.22;93618.97;5087884;28;20028;-35
2022/09/22 05:45:36;;;;;;;0.95;0.93;;;;;;;6.87;79.94;93625.28;5090674;28;20020;-36
2022/09/22 05:48:02;;;;;;;0.82;0.82;;;;;;;6.93;79.67;93632.69;5090432;28;20028;-35
2022/09/22 05:50:27;;;;;;;0.40;0.40;;;;;;;6.89;79.97;93624.75;5090457;28;20030;-35
2022/09/22 05:53:02;;;;;;;0.50;0.50;;;;;;;7.08;79.26;93636.44;5087300;28;20024;-35
2022/09/22 05:55:27;;;;;;;0.88;0.88;;;;;;;7.14;79.67;93631.63;5066617;28;20464;-35
2022/09/22 05:57:56;;;;;;;4.75;2.17;;;;;;;7.22;78.96;93624.25;5080960;28;20032;-35
2022/09/22 06:00:22;;;;;;;1.35;0.52;;;;;;;7.21;79.21;93627.53;5056281;28;20039;-35
2022/09/22 06:02:47;;;;;;;0.30;0.30;;;;;;;7.28;78.95;93626.91;5082210;28;20415;-35
2022/09/22 06:05:13;;;;;;;0.82;0.73;;;;;;;7.28;79.44;93627.66;5065346;28;20027;-35
2022/09/22 06:07:38;;;;;;;1.15;1.15;;;;;;;7.29;78.99;93628.41;5073452;28;20408;-35
2022/09/22 06:10:05;;;;;;;0.90;0.90;;;;;;;7.44;79.07;93634.16;5089489;28;20067;-35
2022/09/22 06:12:30;;;;;;;0.40;0.40;;;;;;;7.37;78.61;93607.31;5089406;28;20491;-35
2022/09/22 06:14:56;;;;;;;0.43;0.43;;;;;;;7.62;78.79;93625.84;5087336;28;20069;-35
2022/09/22 06:17:22;;;;;;;0.43;0.43;;;;;;;7.65;78.16;93629.56;5084416;28;20488;-35
2022/09/22 06:19:49;;;;;;;0.40;0.40;;;;;;;7.76;77.38;93628.63;5093741;28;20028;-35
2022/09/22 06:22:15;;;;;;;1.02;1.02;;;;;;;7.62;77.33;93603.16;5090279;28;20107;-35
2022/09/22 06:24:41;;;;;;;1.42;1.38;;;;;;;7.92;76.80;93627.59;5092992;28;20067;-35
2022/09/22 06:27:06;;;;;;;0.38;0.38;;;;;;;7.94;77.19;93625.06;5077441;28;20051;-35
2022/09/22 06:29:32;;;;;;;0.65;0.65;;;;;;;7.90;75.70;93619.91;5061742;28;20070;-35
2022/09/22 06:31:57;;;;;;;0.30;0.30;;;;;;;8.03;76.34;93633.66;5067729;28;20020;-36
2022/09/22 06:34:25;;;;;;;0.60;0.60;;;;;;;8.01;75.80;93630.66;5083530;28;20515;-36
2022/09/22 06:36:54;;;;;;;0.30;0.30;;;;;;;8.07;76.17;93628.56;5073635;28;20028;-35
2022/09/22 06:39:21;;;;;;;0.50;0.50;;;;;;;8.20;76.12;93628.56;5088575;28;20492;-36
2022/09/22 06:41:48;;;;;;;3.60;1.35;;;;;;;8.19;75.67;93624.34;5076239;28;20119;-36
2022/09/22 06:44:14;;;;;;;0.75;0.75;;;;;;;8.28;75.74;93631.44;5083785;28;20458;-35
2022/09/22 06:46:40;;;;;;;0.50;0.50;;;;;;;8.38;75.73;93629.78;5076261;28;20971;-36
2022/09/22 06:49:06;;;;;;;0.30;0.30;;;;;;;8.41;75.44;93625.94;5093408;28;20077;-36
2022/09/22 06:51:34;;;;;;;1.73;1.65;;;;;;;8.47;73.70;93632.06;5093660;28;20027;-36
2022/09/22 06:54:02;;;;;;;0.30;0.30;;;;;;;8.59;72.15;93627.09;5089269;28;20030;-36
2022/09/22 06:56:29;;;;;;;1.05;1.05;;;;;;;8.43;73.16;93628.91;5084919;28;20539;-35
2022/09/22 06:58:55;;;;;;;0.20;0.20;;;;;;;8.49;73.20;93624.03;5093528;28;20028;-36
2022/09/22 07:01:22;;;;;;;0.40;0.40;;;;;;;8.65;73.50;93624.97;5086059;28;20043;-36
2022/09/22 07:03:48;;;;;;;0.95;0.95;;;;;;;8.73;73.99;93626.53;5089949;28;20025;-35
2022/09/22 07:06:17;;;;;;;0.82;0.82;;;;;;;8.75;72.86;93626.72;5092886;28;20016;-36
2022/09/22 07:08:44;;;;;;;1.45;1.08;;;;;;;8.79;73.34;93613.38;5092273;28;20054;-36
2022/09/22 07:11:10;;;;;;;0.47;0.47;;;;;;;9.05;71.14;93627.06;5084104;28;20024;-36
2022/09/22 07:13:38;;;;;;;0.68;0.68;;;;;;;9.03;72.09;93615.16;5084826;28;20138;-36
2022/09/22 07:16:07;;;;;;;0.47;0.47;;;;;;;9.30;72.26;93624.78;5081437;28;20028;-36
2022/09/22 07:18:34;;;;;;;0.38;0.30;;;;;;;9.26;71.24;93629.88;5066533;28;20024;-36
2022/09/22 07:21:05;;;;;;;0.32;0.32;;;;;;;9.43;71.20;93635.75;5081262;28;20121;-35
2022/09/22 07:23:34;;;;;;;0.28;0.28;;;;;;;9.58;71.19;93629.63;5082376;28;20029;-35
2022/09/22 07:26:01;;;;;;;0.40;0.40;;;;;;;9.64;69.86;93611.66;5078721;28;20472;-36
2022/09/22 07:28:27;;;;;;;1.05;1.00;;;;;;;10.00;69.82;93631.09;5080610;28;20060;-36
2022/09/22 07:30:56;;;;;;;0.40;0.40;;;;;;;10.44;68.98;93638.19;5082455;28;20085;-36
2022/09/22 07:33:23;;;;;;;1.23;1.10;;;;;;;10.62;66.47;93639.97;5081192;28;20027;-36
2022/09/22 07:35:58;;;;;;;1.60;0.85;;;;;;;10.86;68.41;93635.28;5083251;28;20028;-36
2022/09/22 07:38:28;;;;;;;0.52;0.45;;;;;;;11.24;67.05;93619.59;5083933;28;20035;-36
2022/09/22 07:40:54;;;;;;;0.85;0.68;;;;;;;11.51;64.96;93642.88;5084068;28;20158;-36
2022/09/22 07:43:19;;;;;;;0.43;0.43;;;;;;;11.55;64.80;93636.97;5091932;28;20103;-36
2022/09/22 07:45:56;;;;;;;0.20;0.20;;;;;;;12.03;61.65;93638.69;5086635;28;20021;-36
2022/09/22 07:51:20;;;;;;;0.37;0.37;;;;;;;13.82;54.56;93643.47;5069667;28;20105;-36
2022/09/22 07:53:52;;;;;;;0.38;0.38;;;;;;;14.13;55.12;93630.09;5084738;28;20415;-36
2022/09/22 07:56:20;;;;;;;0.20;0.20;;;;;;;14.34;54.77;93636.06;5083593;28;20656;-36
2022/09/22 07:58:48;;;;;;;1.00;0.88;;;;;;;15.08;53.20;93633.06;5085634;28;20077;-36
2022/09/22 08:01:14;;;;;;;0.10;0.10;;;;;;;15.86;49.68;93630.97;5090693;28;20019;-36
2022/09/22 08:03:40;;;;;;;0.35;0.35;;;;;;;15.90;49.80;93636.09;5081923;28;20125;-36
2022/09/22 08:06:11;;;;;;;0.40;0.40;;;;;;;16.39;49.46;93618.25;5084904;28;20039;-36
2022/09/22 08:08:45;;;;;;;0.85;0.85;;;;;;;16.73;47.38;93625.66;5081831;28;20718;-36
2022/09/22 08:11:16;;;;;;;0.43;0.43;;;;;;;16.43;48.09;93610.19;5084131;28;20024;-36
2022/09/22 08:13:47;;;;;;;0.35;0.35;;;;;;;17.48;46.56;93617.91;5092314;28;20024;-36
2022/09/22 08:16:12;;;;;;;0.88;0.88;;;;;;;18.27;44.83;93616.50;5078271;28;20726;-36
2022/09/22 08:18:41;;;;;;;0.20;0.20;;;;;;;19.51;41.07;93612.88;5078333;28;20027;-36
2022/09/22 08:21:06;;;;;;;0.50;0.50;;;;;;;20.75;39.08;93610.69;5088793;28;20488;-36
2022/09/22 08:23:32;;;;;;;1.13;0.40;;;;;;;21.21;37.41;93609.88;5082909;28;20123;-36
2022/09/22 08:26:05;;;;;;;0.40;0.40;;;;;;;20.76;38.21;93603.75;5072478;28;20020;-36
2022/09/22 08:28:31;;;;;;;0.90;0.43;;;;;;;20.78;35.64;93594.72;5070700;28;20074;-36
2022/09/22 08:30:57;;;;;;;0.15;0.15;;;;;;;21.09;35.71;93587.44;5069166;28;20059;-36
2022/09/22 08:33:24;;;;;;;0.98;0.68;;;;;;;22.18;35.57;93599.13;5089266;28;20035;-36
2022/09/22 08:35:58;;;;;;;1.63;0.88;;;;;;;22.99;34.97;93604.13;5088944;28;20034;-36
2022/09/22 08:38:26;;;;;;;0.60;0.60;;;;;;;23.01;33.49;93597.84;5088354;28;20040;-36
2022/09/22 08:41:14;;;;;;;0.25;0.25;;;;;;;21.91;33.79;93592.72;5090329;28;20039;-36
2022/09/22 08:43:58;;;;;;;0.20;0.20;;;;;;;22.16;34.53;93595.47;5073302;28;20081;-36
2022/09/22 08:46:47;;;;;;;0.60;0.47;;;;;;;23.36;33.06;93601.03;5071195;28;20050;-36
2022/09/22 08:52:47;;;;;;;0.28;0.28;;;;;;;24.29;29.05;93592.09;5072750;28;20047;-37
2022/09/22 08:55:20;;;;;;;0.20;0.20;;;;;;;24.30;30.32;93587.91;5053374;28;20495;-36
2022/09/22 08:58:00;;;;;;;0.82;0.82;;;;;;;24.40;29.90;93584.81;5052916;28;20508;-36
2022/09/22 09:00:32;;;;;;;0.17;0.17;;;;;;;23.27;32.88;93591.44;5070817;28;20044;-36
2022/09/22 09:03:13;;;;;;;0.43;0.43;;;;;;;24.06;31.03;93584.00;5057010;28;20020;-36
2022/09/22 09:05:39;;;;;;;0.30;0.30;;;;;;;24.76;28.23;93583.63;5070691;28;20029;-36
2022/09/22 09:08:10;;;;;;;0.25;0.25;;;;;;;25.41;28.10;93570.84;5070658;28;20036;-37
2022/09/22 09:11:05;;;;;;;0.00;0.00;;;;;;;25.43;28.29;93570.22;5070956;28;20448;-36
2022/09/22 09:14:08;;;;;;;1.33;0.75;;;;;;;26.20;27.47;93571.94;5070870;28;20454;-37
2022/09/22 09:16:57;;;;;;;0.85;0.55;;;;;;;24.37;29.14;93583.25;5086113;28;20020;-37
2022/09/22 09:19:32;;;;;;;0.50;0.50;;;;;;;22.86;31.04;93581.59;5089776;28;20024;-36
2022/09/22 09:22:08;;;;;;;0.88;0.55;;;;;;;21.28;33.54;93585.69;5078813;28;20031;-36
2022/09/22 09:24:45;;;;;;;0.65;0.65;;;;;;;20.99;35.21;93577.69;5056563;28;20106;-36
2022/09/22 09:27:13;;;;;;;0.50;0.50;;;;;;;22.33;33.37;93576.03;5073001;28;20411;-36
2022/09/22 09:29:56;;;;;;;0.70;0.70;;;;;;;23.73;30.80;93576.06;5078185;28;20066;-36
2022/09/22 09:32:36;;;;;;;0.25;0.25;;;;;;;25.05;28.79;93568.63;5076368;28;20074;-37
2022/09/22 09:35:02;;;;;;;0.25;0.25;;;;;;;24.90;28.38;93558.81;5070269;28;20032;-36
2022/09/22 09:37:28;;;;;;;0.13;0.13;;;;;;;24.75;29.26;93570.88;5078720;28;20012;-37
2022/09/22 09:39:55;;;;;;;0.00;0.00;;;;;;;24.89;28.68;93559.44;5090495;28;20039;-37
2022/09/22 09:42:27;;;;;;;1.73;1.63;;;;;;;25.63;28.43;93567.50;5061951;28;20020;-37
2022/09/22 09:44:53;;;;;;;0.52;0.52;;;;;;;26.61;26.95;93557.16;5074789;28;20039;-36
2022/09/22 09:47:51;;;;;;;0.13;0.13;;;;;;;27.60;25.23;93560.59;5069999;28;20016;-37
2022/09/22 09:50:18;;;;;;;0.22;0.22;;;;;;;28.08;23.26;93558.59;5070132;28;20496;-37
2022/09/22 09:52:44;;;;;;;0.10;0.10;;;;;;;28.21;23.19;93555.47;5071835;28;20029;-37
2022/09/22 09:55:24;;;;;;;0.10;0.10;;;;;;;27.87;23.35;93562.91;5088450;28;20130;-36
2022/09/22 09:58:05;;;;;;;0.00;0.00;;;;;;;28.91;22.13;93559.63;5077132;28;20037;-37
2022/09/22 10:00:31;;;;;;;0.10;0.10;;;;;;;29.48;20.82;93561.88;5052173;28;20056;-37
2022/09/22 10:03:03;;;;;;;0.20;0.20;;;;;;;28.51;20.54;93559.22;5083918;28;20016;-37
2022/09/22 10:05:31;;;;;;;0.30;0.30;;;;;;;26.75;22.71;93557.69;5077784;28;20037;-36
2022/09/22 10:08:02;;;;;;;0.57;0.57;;;;;;;26.40;23.39;93560.59;5078445;28;20016;-36
2022/09/22 10:10:27;;;;;;;0.82;0.73;;;;;;;26.07;23.03;93558.66;5088813;28;20514;-36
2022/09/22 10:12:55;;;;;;;1.10;0.80;;;;;;;26.87;22.65;93548.91;5087368;28;20028;-36
2022/09/22 10:15:25;;;;;;;0.40;0.40;;;;;;;27.36;22.53;93531.44;5056314;28;20070;-36
2022/09/22 10:17:50;;;;;;;3.03;0.57;;;;;;;26.72;23.01;93550.47;5078731;28;20095;-36
2022/09/22 10:20:23;;;;;;;0.28;0.17;;;;;;;24.68;24.36;93555.75;5046199;28;20027;-36
2022/09/22 10:22:48;;;;;;;0.80;0.30;;;;;;;24.96;25.81;93549.88;5086576;28;20040;-36
2022/09/22 10:25:20;;;;;;;0.20;0.20;;;;;;;25.69;23.75;93540.19;5068741;28;20099;-36
2022/09/22 10:28:01;;;;;;;0.55;0.30;;;;;;;26.39;21.62;93544.28;5089064;28;20020;-36
2022/09/22 10:30:27;;;;;;;0.80;0.40;;;;;;;27.34;21.79;93534.19;5069677;28;20162;-37
2022/09/22 10:33:11;;;;;;;0.88;0.63;;;;;;;28.20;21.36;93531.28;5068933;28;20107;-37
2022/09/22 10:35:39;;;;;;;0.40;0.40;;;;;;;29.13;20.59;93533.91;5081578;28;20028;-35
2022/09/22 10:38:14;;;;;;;0.10;0.10;;;;;;;29.05;19.27;93522.34;5072830;28;20595;-35
2022/09/22 10:40:41;;;;;;;0.70;0.70;;;;;;;29.20;19.72;93524.91;5072630;28;20648;-35
2022/09/22 10:43:33;;;;;;;0.10;0.10;;;;;;;29.99;20.00;93516.19;5074287;28;20441;-35
2022/09/22 10:46:07;;;;;;;2.30;0.98;;;;;;;29.25;20.83;93520.06;5064217;28;20024;-35
2022/09/22 10:49:15;;;;;;;0.35;0.35;;;;;;;28.98;18.65;93501.56;5087973;28;20517;-35
2022/09/22 10:52:13;;;;;;;5.22;0.82;;;;;;;25.23;25.29;93547.50;5027380;28;20029;-36
2022/09/22 10:54:40;;;;;;;0.13;0.13;;;;;;;22.90;29.55;93551.56;5088502;28;20054;-36
2022/09/22 10:57:28;;;;;;;0.10;0.10;;;;;;;21.96;32.01;93538.91;5087875;28;20044;-36
2022/09/22 11:00:07;;;;;;;0.20;0.20;;;;;;;22.78;31.49;93545.34;5088505;28;20028;-36
2022/09/22 11:02:47;;;;;;;0.10;0.10;;;;;;;23.87;30.17;93522.41;5069670;28;20032;-36
2022/09/22 11:14:37;;;;;;;0.25;0.25;;;;;;;24.70;28.38;93529.69;5091800;28;20119;-36
2022/09/22 11:17:21;;;;;;;3.97;1.02;;;;;;;24.42;28.12;93539.75;5072236;28;20024;-36
2022/09/22 11:20:02;;;;;;;0.55;0.45;;;;;;;23.82;28.28;93538.41;5073245;28;20385;-36
2022/09/22 11:22:50;;;;;;;0.20;0.20;;;;;;;22.19;29.71;93538.75;5073246;28;20028;-36
2022/09/22 11:25:42;;;;;;;0.10;0.10;;;;;;;20.84;32.34;93536.84;5077265;28;20019;-36
2022/09/22 11:28:42;;;;;;;1.17;1.05;;;;;;;19.68;34.70;93536.91;5092985;28;20107;-36
2022/09/22 11:31:18;;;;;;;0.30;0.30;;;;;;;18.91;35.98;93539.72;5074506;28;20034;-36
2022/09/22 11:34:13;;;;;;;0.57;0.57;;;;;;;18.38;36.30;93532.00;5063453;28;20028;-36
2022/09/22 11:37:50;;;;;;;0.20;0.20;;;;;;;17.96;38.08;93532.66;4962633;27;4303716;-35
2022/09/22 11:40:40;;;;;;;0.10;0.10;;;;;;;17.61;38.53;93528.81;5088175;28;20048;-35
2022/09/22 11:43:18;;;;;;;0.20;0.20;;;;;;;17.50;37.83;93525.91;5081982;28;20028;-35
2022/09/22 11:45:53;;;;;;;0.10;0.10;;;;;;;17.46;38.02;93520.78;5088002;28;20024;-35
2022/09/22 11:48:27;;;;;;;0.40;0.40;;;;;;;17.42;38.48;93520.50;5087915;28;20416;-35
2022/09/22 11:51:15;;;;;;;2.08;0.80;;;;;;;17.53;39.58;93522.69;5084081;28;20120;-35
2022/09/22 11:53:49;;;;;;;0.10;0.10;;;;;;;17.47;37.58;93519.47;5077262;28;20414;-35
2022/09/22 11:56:37;;;;;;;0.73;0.73;;;;;;;17.51;36.84;93516.97;5085067;28;20082;-35
2022/09/22 11:59:20;;;;;;;0.20;0.20;;;;;;;17.44;37.59;93515.78;5075071;28;20051;-35
2022/09/22 12:01:46;;;;;;;3.92;3.72;;;;;;;17.58;37.95;93510.50;5064470;28;20033;-36
2022/09/22 12:04:25;;;;;;;4.07;2.17;;;;;;;17.48;38.83;93509.03;5081229;28;20070;-35
2022/09/22 12:06:54;;;;;;;0.63;0.63;;;;;;;17.21;38.48;93509.97;5077447;28;20117;-36
2022/09/22 12:09:29;;;;;;;0.63;0.63;;;;;;;17.44;39.61;93510.22;5081745;28;20103;-36
2022/09/22 12:11:56;;;;;;;10.38;8.07;;;;;;;17.47;38.89;93513.13;5067195;28;20690;-35